sensor_id;sensor_type;location;lat;lon;timestamp;pressure;altitude;pressure_sealevel;temperature;humidity
74268;BME280;62638;51.362;12.472;2023-02-11T00:01:23;101784.88;;;1.02;88.47
74268;BME280;62638;51.362;12.472;2023-02-11T00:03:49;101779.06;;;1.18;88.07
74268;BME280;62638;51.362;12.472;2023-02-11T00:06:15;101779.84;;;1.22;88.08
74268;BME280;62638;51.362;12.472;2023-02-11T00:08:40;101781.56;;;1.23;88.20
74268;BME280;62638;51.362;12.472;2023-02-11T00:11:06;101777.03;;;1.28;87.94
74268;BME280;62638;51.362;12.472;2023-02-11T00:13:31;101767.25;;;1.30;87.84
74268;BME280;62638;51.362;12.472;2023-02-11T00:15:57;101760.97;;;1.34;87.49
74268;BME280;62638;51.362;12.472;2023-02-11T00:18:22;101746.44;;;1.21;88.39
74268;BME280;62638;51.362;12.472;2023-02-11T00:20:48;101727.41;;;1.11;88.73
74268;BME280;62638;51.362;12.472;2023-02-11T00:23:13;101730.81;;;1.15;88.66
74268;BME280;62638;51.362;12.472;2023-02-11T00:25:40;101724.09;;;1.05;88.88
74268;BME280;62638;51.362;12.472;2023-02-11T00:28:05;101711.91;;;1.01;89.25
74268;BME280;62638;51.362;12.472;2023-02-11T00:30:31;101712.69;;;1.04;88.96
74268;BME280;62638;51.362;12.472;2023-02-11T00:32:56;101713.88;;;1.22;88.31
74268;BME280;62638;51.362;12.472;2023-02-11T00:35:22;101711.34;;;1.19;88.59
74268;BME280;62638;51.362;12.472;2023-02-11T00:37:47;101697.72;;;1.32;88.30
74268;BME280;62638;51.362;12.472;2023-02-11T00:40:12;101688.56;;;1.43;87.75
74268;BME280;62638;51.362;12.472;2023-02-11T00:42:40;101688.56;;;1.43;87.58
74268;BME280;62638;51.362;12.472;2023-02-11T00:45:06;101703.78;;;1.61;87.27
74268;BME280;62638;51.362;12.472;2023-02-11T00:47:31;101703.50;;;1.68;86.94
74268;BME280;62638;51.362;12.472;2023-02-11T00:49:57;101706.16;;;1.68;86.75
74268;BME280;62638;51.362;12.472;2023-02-11T00:52:23;101710.97;;;1.82;86.37
74268;BME280;62638;51.362;12.472;2023-02-11T00:54:48;101707.59;;;1.78;86.47
74268;BME280;62638;51.362;12.472;2023-02-11T00:57:13;101693.34;;;1.82;85.55
74268;BME280;62638;51.362;12.472;2023-02-11T00:59:38;101696.00;;;1.82;85.78
74268;BME280;62638;51.362;12.472;2023-02-11T01:02:04;101682.78;;;1.82;86.39
74268;BME280;62638;51.362;12.472;2023-02-11T01:04:29;101678.00;;;1.94;85.61
74268;BME280;62638;51.362;12.472;2023-02-11T01:06:54;101686.78;;;1.94;85.68
74268;BME280;62638;51.362;12.472;2023-02-11T01:09:20;101696.69;;;1.88;86.24
74268;BME280;62638;51.362;12.472;2023-02-11T01:11:46;101684.09;;;1.96;85.81
74268;BME280;62638;51.362;12.472;2023-02-11T01:14:11;101681.59;;;1.91;86.10
74268;BME280;62638;51.362;12.472;2023-02-11T01:16:36;101688.28;;;2.01;85.69
74268;BME280;62638;51.362;12.472;2023-02-11T01:19:02;101673.22;;;2.03;85.58
74268;BME280;62638;51.362;12.472;2023-02-11T01:21:27;101673.84;;;2.11;85.79
74268;BME280;62638;51.362;12.472;2023-02-11T01:23:52;101676.66;;;2.07;85.46
74268;BME280;62638;51.362;12.472;2023-02-11T01:26:18;101672.19;;;2.07;85.47
74268;BME280;62638;51.362;12.472;2023-02-11T01:28:43;101666.81;;;2.10;85.61
74268;BME280;62638;51.362;12.472;2023-02-11T01:31:08;101668.66;;;2.08;85.92
74268;BME280;62638;51.362;12.472;2023-02-11T01:33:34;101658.81;;;2.12;85.92
74268;BME280;62638;51.362;12.472;2023-02-11T01:36:03;101665.69;;;2.17;85.31
74268;BME280;62638;51.362;12.472;2023-02-11T01:38:29;101656.13;;;2.13;85.85
74268;BME280;62638;51.362;12.472;2023-02-11T01:41:04;101661.22;;;2.19;85.58
74268;BME280;62638;51.362;12.472;2023-02-11T01:43:32;101657.63;;;2.20;85.43
74268;BME280;62638;51.362;12.472;2023-02-11T01:46:03;101664.75;;;2.18;85.97
74268;BME280;62638;51.362;12.472;2023-02-11T01:48:34;101646.56;;;2.11;86.02
74268;BME280;62638;51.362;12.472;2023-02-11T01:51:25;101652.50;;;2.16;85.95
74268;BME280;62638;51.362;12.472;2023-02-11T01:53:51;101656.00;;;2.16;86.32
74268;BME280;62638;51.362;12.472;2023-02-11T01:56:42;101661.41;;;2.13;86.62
74268;BME280;62638;51.362;12.472;2023-02-11T01:59:31;101659.44;;;2.20;86.39
74268;BME280;62638;51.362;12.472;2023-02-11T02:02:02;101651.38;;;2.23;85.98
74268;BME280;62638;51.362;12.472;2023-02-11T02:04:34;101661.97;;;2.23;86.04
74268;BME280;62638;51.362;12.472;2023-02-11T02:07:07;101663.31;;;2.33;85.66
74268;BME280;62638;51.362;12.472;2023-02-11T02:09:41;101673.97;;;2.32;86.10
74268;BME280;62638;51.362;12.472;2023-02-11T02:12:08;101662.47;;;2.33;85.75
74268;BME280;62638;51.362;12.472;2023-02-11T02:14:38;101662.34;;;2.36;85.78
74268;BME280;62638;51.362;12.472;2023-02-11T02:17:03;101665.69;;;2.41;85.60
74268;BME280;62638;51.362;12.472;2023-02-11T02:23:04;101670.00;;;2.43;85.43
74268;BME280;62638;51.362;12.472;2023-02-11T02:25:48;101658.22;;;2.52;85.35
74268;BME280;62638;51.362;12.472;2023-02-11T02:34:05;101644.69;;;2.59;85.01
74268;BME280;62638;51.362;12.472;2023-02-11T02:36:40;101637.56;;;2.61;84.94
74268;BME280;62638;51.362;12.472;2023-02-11T02:39:11;101626.25;;;2.58;84.85
74268;BME280;62638;51.362;12.472;2023-02-11T02:41:39;101632.88;;;2.68;84.46
74268;BME280;62638;51.362;12.472;2023-02-11T02:44:06;101627.72;;;2.65;84.87
74268;BME280;62638;51.362;12.472;2023-02-11T02:46:33;101629.41;;;2.67;85.08
74268;BME280;62638;51.362;12.472;2023-02-11T02:48:59;101630.94;;;2.73;84.80
74268;BME280;62638;51.362;12.472;2023-02-11T02:54:32;101604.66;;;2.68;84.48
74268;BME280;62638;51.362;12.472;2023-02-11T02:57:18;101614.69;;;2.82;84.17
74268;BME280;62638;51.362;12.472;2023-02-11T03:00:40;101616.25;;;2.88;84.31
74268;BME280;62638;51.362;12.472;2023-02-11T03:06:00;101632.34;;;2.82;84.53
74268;BME280;62638;51.362;12.472;2023-02-11T03:08:39;101632.03;;;2.89;84.60
74268;BME280;62638;51.362;12.472;2023-02-11T03:11:08;101633.03;;;2.87;84.50
74268;BME280;62638;51.362;12.472;2023-02-11T03:13:35;101620.81;;;2.84;85.11
74268;BME280;62638;51.362;12.472;2023-02-11T03:16:08;101622.03;;;2.97;84.43
74268;BME280;62638;51.362;12.472;2023-02-11T03:18:38;101616.09;;;2.91;84.54
74268;BME280;62638;51.362;12.472;2023-02-11T03:21:07;101626.47;;;2.97;84.87
74268;BME280;62638;51.362;12.472;2023-02-11T03:23:55;101606.94;;;2.99;84.47
74268;BME280;62638;51.362;12.472;2023-02-11T03:26:25;101594.03;;;2.92;84.76
74268;BME280;62638;51.362;12.472;2023-02-11T03:31:46;101590.53;;;3.11;84.40
74268;BME280;62638;51.362;12.472;2023-02-11T03:34:26;101588.63;;;3.15;84.31
74268;BME280;62638;51.362;12.472;2023-02-11T03:36:57;101587.91;;;3.11;84.48
74268;BME280;62638;51.362;12.472;2023-02-11T03:39:30;101583.22;;;3.18;84.68
74268;BME280;62638;51.362;12.472;2023-02-11T03:41:59;101572.16;;;3.08;84.89
74268;BME280;62638;51.362;12.472;2023-02-11T03:44:29;101588.63;;;3.15;84.83
74268;BME280;62638;51.362;12.472;2023-02-11T03:46:55;101580.78;;;3.13;84.58
74268;BME280;62638;51.362;12.472;2023-02-11T03:49:22;101588.44;;;3.19;85.01
74268;BME280;62638;51.362;12.472;2023-02-11T03:51:49;101587.47;;;3.22;84.94
74268;BME280;62638;51.362;12.472;2023-02-11T03:54:20;101575.97;;;3.23;84.88
74268;BME280;62638;51.362;12.472;2023-02-11T03:56:52;101584.00;;;3.20;84.81
74268;BME280;62638;51.362;12.472;2023-02-11T03:59:18;101583.63;;;3.29;84.64
74268;BME280;62638;51.362;12.472;2023-02-11T04:01:43;101583.75;;;3.26;84.60
74268;BME280;62638;51.362;12.472;2023-02-11T04:04:08;101583.63;;;3.29;84.90
74268;BME280;62638;51.362;12.472;2023-02-11T04:06:33;101572.16;;;3.29;84.72
74268;BME280;62638;51.362;12.472;2023-02-11T04:08:59;101576.34;;;3.34;84.84
74268;BME280;62638;51.362;12.472;2023-02-11T04:11:24;101561.53;;;3.30;84.60
74268;BME280;62638;51.362;12.472;2023-02-11T04:13:50;101570.31;;;3.31;84.75
74268;BME280;62638;51.362;12.472;2023-02-11T04:16:15;101567.41;;;3.37;84.93
74268;BME280;62638;51.362;12.472;2023-02-11T04:18:40;101558.34;;;3.42;84.52
74268;BME280;62638;51.362;12.472;2023-02-11T04:21:05;101549.66;;;3.39;84.36
74268;BME280;62638;51.362;12.472;2023-02-11T04:23:31;101553.19;;;3.39;84.50
74268;BME280;62638;51.362;12.472;2023-02-11T04:25:56;101554.56;;;3.48;84.18
74268;BME280;62638;51.362;12.472;2023-02-11T04:28:21;101557.06;;;3.51;84.33
74268;BME280;62638;51.362;12.472;2023-02-11T04:30:48;101563.25;;;3.51;84.20
74268;BME280;62638;51.362;12.472;2023-02-11T04:33:14;101564.56;;;3.61;84.32
74268;BME280;62638;51.362;12.472;2023-02-11T04:35:39;101556.81;;;3.57;84.16
74268;BME280;62638;51.362;12.472;2023-02-11T04:38:05;101554.22;;;3.55;84.00
74268;BME280;62638;51.362;12.472;2023-02-11T04:40:30;101567.06;;;3.64;83.52
74268;BME280;62638;51.362;12.472;2023-02-11T04:42:55;101564.06;;;3.72;83.14
74268;BME280;62638;51.362;12.472;2023-02-11T04:45:20;101544.97;;;3.65;83.56
74268;BME280;62638;51.362;12.472;2023-02-11T04:47:45;101546.25;;;3.76;83.21
74268;BME280;62638;51.362;12.472;2023-02-11T04:50:11;101552.50;;;3.75;83.30
74268;BME280;62638;51.362;12.472;2023-02-11T04:52:36;101570.91;;;3.78;83.01
74268;BME280;62638;51.362;12.472;2023-02-11T04:55:01;101559.38;;;3.79;83.22
74268;BME280;62638;51.362;12.472;2023-02-11T04:57:27;101559.38;;;3.79;82.95
74268;BME280;62638;51.362;12.472;2023-02-11T04:59:52;101563.88;;;3.77;82.88
74268;BME280;62638;51.362;12.472;2023-02-11T05:02:17;101558.38;;;3.81;82.62
74268;BME280;62638;51.362;12.472;2023-02-11T05:04:42;101563.41;;;3.87;82.72
74268;BME280;62638;51.362;12.472;2023-02-11T05:07:08;101556.53;;;3.83;82.46
74268;BME280;62638;51.362;12.472;2023-02-11T05:09:33;101568.56;;;3.90;82.38
74268;BME280;62638;51.362;12.472;2023-02-11T05:11:58;101568.56;;;3.90;82.61
74268;BME280;62638;51.362;12.472;2023-02-11T05:14:23;101569.56;;;3.88;82.98
74268;BME280;62638;51.362;12.472;2023-02-11T05:16:49;101564.97;;;3.91;82.94
74268;BME280;62638;51.362;12.472;2023-02-11T05:19:14;101561.53;;;3.89;82.83
74268;BME280;62638;51.362;12.472;2023-02-11T05:21:39;101551.94;;;3.87;82.72
74268;BME280;62638;51.362;12.472;2023-02-11T05:24:06;101556.94;;;3.93;83.29
74268;BME280;62638;51.362;12.472;2023-02-11T05:26:31;101542.97;;;3.89;82.93
74268;BME280;62638;51.362;12.472;2023-02-11T05:28:57;101527.38;;;3.83;83.22
74268;BME280;62638;51.362;12.472;2023-02-11T05:31:22;101534.56;;;3.80;83.12
74268;BME280;62638;51.362;12.472;2023-02-11T05:33:47;101544.03;;;3.85;83.46
74268;BME280;62638;51.362;12.472;2023-02-11T05:36:12;101538.75;;;3.85;83.34
74268;BME280;62638;51.362;12.472;2023-02-11T05:38:38;101546.84;;;3.82;83.51
74268;BME280;62638;51.362;12.472;2023-02-11T05:41:07;101531.09;;;3.79;83.73
74268;BME280;62638;51.362;12.472;2023-02-11T05:43:33;101541.50;;;3.84;83.83
74268;BME280;62638;51.362;12.472;2023-02-11T05:46:04;101551.13;;;3.85;83.60
74268;BME280;62638;51.362;12.472;2023-02-11T05:48:30;101550.41;;;3.81;83.93
74268;BME280;62638;51.362;12.472;2023-02-11T05:50:55;101553.78;;;3.85;83.68
74268;BME280;62638;51.362;12.472;2023-02-11T05:53:20;101551.28;;;3.82;83.90
74268;BME280;62638;51.362;12.472;2023-02-11T05:55:46;101545.97;;;3.82;84.01
74268;BME280;62638;51.362;12.472;2023-02-11T05:58:11;101544.41;;;3.78;84.40
74268;BME280;62638;51.362;12.472;2023-02-11T06:00:36;101543.47;;;3.79;84.18
74268;BME280;62638;51.362;12.472;2023-02-11T06:03:02;101531.31;;;3.75;84.67
74268;BME280;62638;51.362;12.472;2023-02-11T06:05:28;101528.34;;;3.81;84.42
74268;BME280;62638;51.362;12.472;2023-02-11T06:07:53;101524.06;;;3.78;84.71
74268;BME280;62638;51.362;12.472;2023-02-11T06:10:19;101529.44;;;3.77;84.88
74268;BME280;62638;51.362;12.472;2023-02-11T06:12:44;101530.44;;;3.74;85.55
74268;BME280;62638;51.362;12.472;2023-02-11T06:15:09;101540.88;;;3.77;85.15
74268;BME280;62638;51.362;12.472;2023-02-11T06:17:35;101535.53;;;3.79;85.75
74268;BME280;62638;51.362;12.472;2023-02-11T06:20:03;101531.81;;;3.83;85.43
74268;BME280;62638;51.362;12.472;2023-02-11T06:22:28;101532.78;;;3.80;85.45
74268;BME280;62638;51.362;12.472;2023-02-11T06:24:54;101511.69;;;3.79;85.56
74268;BME280;62638;51.362;12.472;2023-02-11T06:27:19;101514.19;;;3.82;86.05
74268;BME280;62638;51.362;12.472;2023-02-11T06:29:45;101515.97;;;3.81;85.74
74268;BME280;62638;51.362;12.472;2023-02-11T06:32:11;101515.09;;;3.81;86.14
74268;BME280;62638;51.362;12.472;2023-02-11T06:34:37;101516.63;;;3.86;86.17
74268;BME280;62638;51.362;12.472;2023-02-11T06:37:02;101521.88;;;3.88;85.89
74268;BME280;62638;51.362;12.472;2023-02-11T06:39:27;101522.72;;;3.88;86.40
74268;BME280;62638;51.362;12.472;2023-02-11T06:41:53;101530.44;;;3.93;86.31
74268;BME280;62638;51.362;12.472;2023-02-11T06:44:18;101533.88;;;3.95;85.95
74268;BME280;62638;51.362;12.472;2023-02-11T06:46:43;101536.47;;;3.96;86.04
74268;BME280;62638;51.362;12.472;2023-02-11T06:49:09;101524.22;;;3.94;85.79
74268;BME280;62638;51.362;12.472;2023-02-11T06:51:34;101510.69;;;4.00;86.09
74268;BME280;62638;51.362;12.472;2023-02-11T06:53:59;101536.97;;;4.04;85.85
74268;BME280;62638;51.362;12.472;2023-02-11T06:56:25;101538.19;;;3.97;86.20
74268;BME280;62638;51.362;12.472;2023-02-11T06:58:55;101543.06;;;4.06;86.19
74268;BME280;62638;51.362;12.472;2023-02-11T07:01:21;101543.16;;;4.05;86.25
74268;BME280;62638;51.362;12.472;2023-02-11T07:03:47;101536.97;;;4.04;85.54
74268;BME280;62638;51.362;12.472;2023-02-11T07:06:15;101539.13;;;4.15;85.75
74268;BME280;62638;51.362;12.472;2023-02-11T07:08:41;101526.66;;;4.17;85.57
74268;BME280;62638;51.362;12.472;2023-02-11T07:11:09;101524.78;;;4.19;85.60
74268;BME280;62638;51.362;12.472;2023-02-11T07:13:35;101528.09;;;4.24;85.82
74268;BME280;62638;51.362;12.472;2023-02-11T07:16:06;101533.53;;;4.21;85.97
74268;BME280;62638;51.362;12.472;2023-02-11T07:18:32;101536.97;;;4.23;86.01
74268;BME280;62638;51.362;12.472;2023-02-11T07:20:57;101524.50;;;4.25;85.79
74268;BME280;62638;51.362;12.472;2023-02-11T07:23:22;101526.09;;;4.29;85.82
74268;BME280;62638;51.362;12.472;2023-02-11T07:25:48;101531.22;;;4.32;85.76
74268;BME280;62638;51.362;12.472;2023-02-11T07:28:13;101525.00;;;4.33;85.57
74268;BME280;62638;51.362;12.472;2023-02-11T07:30:38;101532.97;;;4.33;85.64
74268;BME280;62638;51.362;12.472;2023-02-11T07:33:03;101534.69;;;4.34;85.67
74268;BME280;62638;51.362;12.472;2023-02-11T07:35:28;101534.75;;;4.33;85.76
74268;BME280;62638;51.362;12.472;2023-02-11T07:37:54;101539.84;;;4.37;85.68
74268;BME280;62638;51.362;12.472;2023-02-11T07:40:19;101529.38;;;4.34;85.47
74268;BME280;62638;51.362;12.472;2023-02-11T07:42:44;101526.63;;;4.36;85.43
74268;BME280;62638;51.362;12.472;2023-02-11T07:45:10;101539.13;;;4.34;85.90
74268;BME280;62638;51.362;12.472;2023-02-11T07:47:35;101538.31;;;4.32;85.82
74268;BME280;62638;51.362;12.472;2023-02-11T07:50:01;101537.41;;;4.33;86.19
74268;BME280;62638;51.362;12.472;2023-02-11T07:52:29;101534.69;;;4.34;85.85
74268;BME280;62638;51.362;12.472;2023-02-11T07:54:55;101529.53;;;4.31;86.00
74268;BME280;62638;51.362;12.472;2023-02-11T07:57:20;101528.13;;;4.41;85.10
74268;BME280;62638;51.362;12.472;2023-02-11T07:59:46;101520.81;;;4.46;85.06
74268;BME280;62638;51.362;12.472;2023-02-11T08:02:11;101526.84;;;4.50;85.25
74268;BME280;62638;51.362;12.472;2023-02-11T08:04:36;101532.03;;;4.53;84.63
74268;BME280;62638;51.362;12.472;2023-02-11T08:07:01;101529.44;;;4.51;84.99
74268;BME280;62638;51.362;12.472;2023-02-11T08:09:27;101519.91;;;4.47;85.18
74268;BME280;62638;51.362;12.472;2023-02-11T08:11:52;101524.19;;;4.50;85.30
74268;BME280;62638;51.362;12.472;2023-02-11T08:14:17;101533.94;;;4.49;85.28
74268;BME280;62638;51.362;12.472;2023-02-11T08:16:44;101525.13;;;4.49;85.31
74268;BME280;62638;51.362;12.472;2023-02-11T08:19:12;101525.28;;;4.46;84.92
74268;BME280;62638;51.362;12.472;2023-02-11T08:21:38;101536.31;;;4.55;85.29
74268;BME280;62638;51.362;12.472;2023-02-11T08:24:03;101527.53;;;4.53;84.96
74268;BME280;62638;51.362;12.472;2023-02-11T08:26:30;101536.09;;;4.60;85.00
74268;BME280;62638;51.362;12.472;2023-02-11T08:28:57;101538.50;;;4.65;85.21
74268;BME280;62638;51.362;12.472;2023-02-11T08:31:26;101523.34;;;4.67;84.85
74268;BME280;62638;51.362;12.472;2023-02-11T08:33:52;101530.09;;;4.74;84.44
74268;BME280;62638;51.362;12.472;2023-02-11T08:36:21;101526.75;;;4.70;84.95
74268;BME280;62638;51.362;12.472;2023-02-11T08:38:47;101532.44;;;4.80;84.74
74268;BME280;62638;51.362;12.472;2023-02-11T08:41:13;101532.59;;;4.77;84.84
74268;BME280;62638;51.362;12.472;2023-02-11T08:43:39;101533.53;;;4.76;85.20
74268;BME280;62638;51.362;12.472;2023-02-11T08:46:11;101541.44;;;4.77;85.08
74268;BME280;62638;51.362;12.472;2023-02-11T08:48:36;101534.22;;;4.79;84.56
74268;BME280;62638;51.362;12.472;2023-02-11T08:51:11;101539.25;;;4.85;84.81
74268;BME280;62638;51.362;12.472;2023-02-11T08:53:37;101528.16;;;4.77;84.63
74268;BME280;62638;51.362;12.472;2023-02-11T08:56:03;101541.97;;;4.84;84.90
74268;BME280;62638;51.362;12.472;2023-02-11T08:58:28;101526.19;;;4.81;85.47
74268;BME280;62638;51.362;12.472;2023-02-11T09:00:53;101538.22;;;4.88;85.16
74268;BME280;62638;51.362;12.472;2023-02-11T09:03:19;101542.44;;;4.92;84.80
74268;BME280;62638;51.362;12.472;2023-02-11T09:05:46;101547.00;;;5.07;84.41
74268;BME280;62638;51.362;12.472;2023-02-11T09:08:13;101553.81;;;5.13;84.29
74268;BME280;62638;51.362;12.472;2023-02-11T09:10:38;101535.28;;;5.28;84.26
74268;BME280;62638;51.362;12.472;2023-02-11T09:13:04;101549.88;;;5.37;83.64
74268;BME280;62638;51.362;12.472;2023-02-11T09:15:29;101547.16;;;5.38;83.85
74268;BME280;62638;51.362;12.472;2023-02-11T09:17:55;101561.69;;;5.31;84.03
74268;BME280;62638;51.362;12.472;2023-02-11T09:20:20;101566.28;;;5.28;84.06
74268;BME280;62638;51.362;12.472;2023-02-11T09:22:46;101578.25;;;5.36;84.36
74268;BME280;62638;51.362;12.472;2023-02-11T09:25:11;101579.81;;;5.40;84.34
74268;BME280;62638;51.362;12.472;2023-02-11T09:27:36;101591.06;;;5.45;84.38
74268;BME280;62638;51.362;12.472;2023-02-11T09:30:02;101579.19;;;5.35;84.45
74268;BME280;62638;51.362;12.472;2023-02-11T09:32:27;101580.72;;;5.39;85.00
74268;BME280;62638;51.362;12.472;2023-02-11T09:34:53;101583.31;;;5.41;85.27
74268;BME280;62638;51.362;12.472;2023-02-11T09:37:18;101576.53;;;5.35;85.78
74268;BME280;62638;51.362;12.472;2023-02-11T09:39:43;101583.94;;;5.46;85.39
74268;BME280;62638;51.362;12.472;2023-02-11T09:42:25;101582.69;;;5.53;85.16
74268;BME280;62638;51.362;12.472;2023-02-11T09:44:58;101579.16;;;5.53;85.25
74268;BME280;62638;51.362;12.472;2023-02-11T09:47:31;101590.13;;;5.64;85.14
74268;BME280;62638;51.362;12.472;2023-02-11T09:50:06;101592.75;;;5.81;84.71
74268;BME280;62638;51.362;12.472;2023-02-11T09:52:45;101591.81;;;5.82;84.70
74268;BME280;62638;51.362;12.472;2023-02-11T09:55:32;101584.53;;;5.85;84.75
74268;BME280;62638;51.362;12.472;2023-02-11T09:58:03;101581.31;;;5.79;85.10
74268;BME280;62638;51.362;12.472;2023-02-11T10:00:38;101576.34;;;5.90;85.49
74268;BME280;62638;51.362;12.472;2023-02-11T10:06:10;101571.09;;;5.88;85.18
74268;BME280;62638;51.362;12.472;2023-02-11T10:14:42;101548.47;;;5.97;85.33
74268;BME280;62638;51.362;12.472;2023-02-11T10:18:31;101558.56;;;6.08;85.12
74268;BME280;62638;51.362;12.472;2023-02-11T10:23:51;101574.72;;;6.36;83.83
74268;BME280;62638;51.362;12.472;2023-02-11T10:26:19;101573.16;;;6.32;84.00
74268;BME280;62638;51.362;12.472;2023-02-11T10:28:50;101558.66;;;6.37;84.04
74268;BME280;62638;51.362;12.472;2023-02-11T10:31:26;101551.63;;;6.36;83.95
74268;BME280;62638;51.362;12.472;2023-02-11T10:34:00;101562.09;;;6.39;84.06
74268;BME280;62638;51.362;12.472;2023-02-11T10:36:36;101563.88;;;6.39;84.06
74268;BME280;62638;51.362;12.472;2023-02-11T10:39:15;101577.91;;;6.43;84.03
74268;BME280;62638;51.362;12.472;2023-02-11T10:41:44;101567.22;;;6.27;84.78
74268;BME280;62638;51.362;12.472;2023-02-11T10:44:30;101569.47;;;6.34;84.88
74268;BME280;62638;51.362;12.472;2023-02-11T10:46:58;101577.97;;;6.41;84.55
74268;BME280;62638;51.362;12.472;2023-02-11T10:49:34;101573.94;;;6.34;84.74
74268;BME280;62638;51.362;12.472;2023-02-11T10:54:54;101571.59;;;6.28;85.19
74268;BME280;62638;51.362;12.472;2023-02-11T10:57:20;101558.56;;;6.23;84.84
74268;BME280;62638;51.362;12.472;2023-02-11T10:59:46;101551.25;;;6.27;84.79
74268;BME280;62638;51.362;12.472;2023-02-11T11:02:28;101546.56;;;6.16;85.07
74268;BME280;62638;51.362;12.472;2023-02-11T11:05:00;101549.22;;;6.16;85.05
74268;BME280;62638;51.362;12.472;2023-02-11T11:07:29;101559.59;;;6.21;85.26
74268;BME280;62638;51.362;12.472;2023-02-11T11:12:25;101546.56;;;6.32;84.65
74268;BME280;62638;51.362;12.472;2023-02-11T11:14:54;101545.94;;;6.27;85.37
74268;BME280;62638;51.362;12.472;2023-02-11T11:17:20;101533.75;;;6.23;85.69
74268;BME280;62638;51.362;12.472;2023-02-11T11:19:45;101536.09;;;6.29;85.32
74268;BME280;62638;51.362;12.472;2023-02-11T11:22:20;101548.59;;;6.27;85.25
74268;BME280;62638;51.362;12.472;2023-02-11T11:24:46;101548.03;;;6.37;84.80
74268;BME280;62638;51.362;12.472;2023-02-11T11:27:20;101543.47;;;6.39;85.64
74268;BME280;62638;51.362;12.472;2023-02-11T11:29:50;101520.13;;;6.45;84.83
74268;BME280;62638;51.362;12.472;2023-02-11T11:32:24;101533.75;;;6.54;84.43
74268;BME280;62638;51.362;12.472;2023-02-11T11:34:59;101534.97;;;6.49;84.67
74268;BME280;62638;51.362;12.472;2023-02-11T11:37:28;101547.16;;;6.53;84.21
74268;BME280;62638;51.362;12.472;2023-02-11T11:42:41;101547.25;;;6.51;84.38
74268;BME280;62638;51.362;12.472;2023-02-11T11:47:53;101565.97;;;6.50;84.49
74268;BME280;62638;51.362;12.472;2023-02-11T11:50:39;101559.97;;;6.46;84.94
74268;BME280;62638;51.362;12.472;2023-02-11T11:53:22;101562.38;;;6.51;84.85
74268;BME280;62638;51.362;12.472;2023-02-11T11:55:59;101566.91;;;6.49;85.09
74268;BME280;62638;51.362;12.472;2023-02-11T11:58:28;101562.50;;;6.48;84.91
74268;BME280;62638;51.362;12.472;2023-02-11T12:07:10;101562.94;;;6.40;85.53
74268;BME280;62638;51.362;12.472;2023-02-11T12:17:49;101576.28;;;6.56;85.20
74268;BME280;62638;51.362;12.472;2023-02-11T12:23:33;101573.16;;;6.48;85.09
74268;BME280;62638;51.362;12.472;2023-02-11T12:31:58;101552.41;;;6.54;85.34
74268;BME280;62638;51.362;12.472;2023-02-11T12:34:45;101572.50;;;6.60;85.53
74268;BME280;62638;51.362;12.472;2023-02-11T12:37:41;101565.63;;;6.56;85.78
74268;BME280;62638;51.362;12.472;2023-02-11T12:40:45;101555.50;;;6.47;85.80
74268;BME280;62638;51.362;12.472;2023-02-11T12:43:35;101550.94;;;6.49;85.76
74268;BME280;62638;51.362;12.472;2023-02-11T12:57:20;101538.22;;;6.54;85.62
74268;BME280;62638;51.362;12.472;2023-02-11T13:00:37;101535.75;;;6.51;85.59
74268;BME280;62638;51.362;12.472;2023-02-11T13:03:05;101556.69;;;6.57;86.05
74268;BME280;62638;51.362;12.472;2023-02-11T13:05:39;101557.53;;;6.57;86.12
74268;BME280;62638;51.362;12.472;2023-02-11T13:08:20;101535.75;;;6.51;86.06
74268;BME280;62638;51.362;12.472;2023-02-11T13:10:54;101544.66;;;6.50;86.45
74268;BME280;62638;51.362;12.472;2023-02-11T13:13:29;101548.94;;;6.52;86.71
74268;BME280;62638;51.362;12.472;2023-02-11T13:16:02;101547.25;;;6.51;86.30
74268;BME280;62638;51.362;12.472;2023-02-11T13:21:21;101548.00;;;6.53;86.57
74268;BME280;62638;51.362;12.472;2023-02-11T13:23:56;101543.63;;;6.52;86.45
74268;BME280;62638;51.362;12.472;2023-02-11T13:26:32;101535.91;;;6.48;86.83
74268;BME280;62638;51.362;12.472;2023-02-11T13:32:14;101548.00;;;6.53;86.83
74268;BME280;62638;51.362;12.472;2023-02-11T13:37:13;101544.47;;;6.53;87.41
74268;BME280;62638;51.362;12.472;2023-02-11T13:39:55;101545.88;;;6.60;87.43
74268;BME280;62638;51.362;12.472;2023-02-11T13:42:20;101548.63;;;6.58;87.02
74268;BME280;62638;51.362;12.472;2023-02-11T13:44:45;101564.31;;;6.63;87.04
74268;BME280;62638;51.362;12.472;2023-02-11T13:47:30;101558.06;;;6.64;86.92
74268;BME280;62638;51.362;12.472;2023-02-11T13:49:57;101554.53;;;6.63;87.07
74268;BME280;62638;51.362;12.472;2023-02-11T13:52:27;101551.28;;;6.58;87.42
74268;BME280;62638;51.362;12.472;2023-02-11T13:54:55;101561.75;;;6.61;87.40
74268;BME280;62638;51.362;12.472;2023-02-11T13:57:26;101559.25;;;6.58;87.66
74268;BME280;62638;51.362;12.472;2023-02-11T13:59:55;101552.13;;;6.59;87.20
74268;BME280;62638;51.362;12.472;2023-02-11T14:02:31;101565.25;;;6.62;87.73
74268;BME280;62638;51.362;12.472;2023-02-11T14:05:30;101553.75;;;6.61;87.36
74268;BME280;62638;51.362;12.472;2023-02-11T14:08:20;101559.88;;;6.63;87.51
74268;BME280;62638;51.362;12.472;2023-02-11T14:11:08;101556.25;;;6.64;87.74
74268;BME280;62638;51.362;12.472;2023-02-11T14:16:12;101552.75;;;6.64;87.53
74268;BME280;62638;51.362;12.472;2023-02-11T14:18:58;101550.75;;;6.67;87.91
74268;BME280;62638;51.362;12.472;2023-02-11T14:23:53;101566.81;;;6.66;87.78
74268;BME280;62638;51.362;12.472;2023-02-11T14:32:42;101563.38;;;6.64;88.12
74268;BME280;62638;51.362;12.472;2023-02-11T14:35:35;101574.13;;;6.62;88.36
74268;BME280;62638;51.362;12.472;2023-02-11T14:38:19;101572.25;;;6.64;88.31